sensor_id;sensor_type;location;lat;lon;timestamp;pressure;altitude;pressure_sealevel;temperature
41593;BMP180;28026;48.562;14.440;2024-03-17T00:00:33;94164.00;;;15.10
41593;BMP180;28026;48.562;14.440;2024-03-17T00:03:04;94154.00;;;15.10
41593;BMP180;28026;48.562;14.440;2024-03-17T00:05:35;94153.00;;;15.10
41593;BMP180;28026;48.562;14.440;2024-03-17T00:08:06;94152.00;;;15.10
41593;BMP180;28026;48.562;14.440;2024-03-17T00:10:38;94137.00;;;15.10
41593;BMP180;28026;48.562;14.440;2024-03-17T00:13:09;94148.00;;;15.00
41593;BMP180;28026;48.562;14.440;2024-03-17T00:15:40;94165.00;;;15.00
41593;BMP180;28026;48.562;14.440;2024-03-17T00:18:11;94155.00;;;14.90
41593;BMP180;28026;48.562;14.440;2024-03-17T00:20:41;94176.00;;;14.80
41593;BMP180;28026;48.562;14.440;2024-03-17T00:23:13;94169.00;;;14.80
41593;BMP180;28026;48.562;14.440;2024-03-17T00:25:44;94166.00;;;14.70
41593;BMP180;28026;48.562;14.440;2024-03-17T00:28:15;94183.00;;;14.70
41593;BMP180;28026;48.562;14.440;2024-03-17T00:30:45;94181.00;;;14.70
41593;BMP180;28026;48.562;14.440;2024-03-17T00:33:16;94188.00;;;14.70
41593;BMP180;28026;48.562;14.440;2024-03-17T00:35:50;94188.00;;;14.70
41593;BMP180;28026;48.562;14.440;2024-03-17T00:38:21;94194.00;;;14.70
41593;BMP180;28026;48.562;14.440;2024-03-17T00:40:52;94198.00;;;14.70
41593;BMP180;28026;48.562;14.440;2024-03-17T00:43:23;94194.00;;;14.70
41593;BMP180;28026;48.562;14.440;2024-03-17T00:45:54;94203.00;;;14.60
41593;BMP180;28026;48.562;14.440;2024-03-17T00:48:25;94182.00;;;14.50
41593;BMP180;28026;48.562;14.440;2024-03-17T00:50:56;94196.00;;;14.50
41593;BMP180;28026;48.562;14.440;2024-03-17T00:53:28;94199.00;;;14.50
41593;BMP180;28026;48.562;14.440;2024-03-17T00:55:59;94193.00;;;14.60
41593;BMP180;28026;48.562;14.440;2024-03-17T00:58:31;94191.00;;;14.60
41593;BMP180;28026;48.562;14.440;2024-03-17T01:01:02;94181.00;;;14.60
41593;BMP180;28026;48.562;14.440;2024-03-17T01:03:33;94170.00;;;14.70
41593;BMP180;28026;48.562;14.440;2024-03-17T01:06:04;94181.00;;;14.60
41593;BMP180;28026;48.562;14.440;2024-03-17T01:08:35;94180.00;;;14.60
41593;BMP180;28026;48.562;14.440;2024-03-17T01:11:06;94191.00;;;14.50
41593;BMP180;28026;48.562;14.440;2024-03-17T01:13:39;94183.00;;;14.50
41593;BMP180;28026;48.562;14.440;2024-03-17T01:16:13;94203.00;;;14.40
41593;BMP180;28026;48.562;14.440;2024-03-17T01:18:44;94192.00;;;14.30
41593;BMP180;28026;48.562;14.440;2024-03-17T01:21:16;94205.00;;;14.30
41593;BMP180;28026;48.562;14.440;2024-03-17T01:23:48;94214.00;;;14.30
41593;BMP180;28026;48.562;14.440;2024-03-17T01:26:20;94213.00;;;14.20
41593;BMP180;28026;48.562;14.440;2024-03-17T01:28:50;94218.00;;;14.20
41593;BMP180;28026;48.562;14.440;2024-03-17T01:31:22;94220.00;;;14.20
41593;BMP180;28026;48.562;14.440;2024-03-17T01:33:53;94217.00;;;14.20
41593;BMP180;28026;48.562;14.440;2024-03-17T01:36:24;94213.00;;;14.20
41593;BMP180;28026;48.562;14.440;2024-03-17T01:38:55;94203.00;;;14.20
41593;BMP180;28026;48.562;14.440;2024-03-17T01:41:26;94205.00;;;14.10
41593;BMP180;28026;48.562;14.440;2024-03-17T01:43:57;94198.00;;;14.10
41593;BMP180;28026;48.562;14.440;2024-03-17T01:46:29;94193.00;;;14.00
41593;BMP180;28026;48.562;14.440;2024-03-17T01:49:00;94187.00;;;14.00
41593;BMP180;28026;48.562;14.440;2024-03-17T01:51:31;94200.00;;;13.90
41593;BMP180;28026;48.562;14.440;2024-03-17T01:54:02;94206.00;;;13.90
41593;BMP180;28026;48.562;14.440;2024-03-17T01:56:34;94196.00;;;13.90
41593;BMP180;28026;48.562;14.440;2024-03-17T01:59:07;94202.00;;;13.80
41593;BMP180;28026;48.562;14.440;2024-03-17T02:01:39;94204.00;;;13.80
41593;BMP180;28026;48.562;14.440;2024-03-17T02:04:11;94206.00;;;13.70
41593;BMP180;28026;48.562;14.440;2024-03-17T02:06:42;94206.00;;;13.70
41593;BMP180;28026;48.562;14.440;2024-03-17T02:09:13;94206.00;;;13.70
41593;BMP180;28026;48.562;14.440;2024-03-17T02:11:44;94212.00;;;13.70
41593;BMP180;28026;48.562;14.440;2024-03-17T02:14:15;94212.00;;;13.70
41593;BMP180;28026;48.562;14.440;2024-03-17T02:16:47;94210.00;;;13.80
41593;BMP180;28026;48.562;14.440;2024-03-17T02:19:18;94214.00;;;13.70
41593;BMP180;28026;48.562;14.440;2024-03-17T02:21:49;94212.00;;;13.80
41593;BMP180;28026;48.562;14.440;2024-03-17T02:24:20;94206.00;;;13.70
41593;BMP180;28026;48.562;14.440;2024-03-17T02:26:51;94207.00;;;13.70
41593;BMP180;28026;48.562;14.440;2024-03-17T02:29:22;94208.00;;;13.70
41593;BMP180;28026;48.562;14.440;2024-03-17T02:31:53;94198.00;;;13.70
41593;BMP180;28026;48.562;14.440;2024-03-17T02:34:24;94204.00;;;13.70
41593;BMP180;28026;48.562;14.440;2024-03-17T02:36:55;94205.00;;;13.70
41593;BMP180;28026;48.562;14.440;2024-03-17T02:39:26;94222.00;;;13.70
41593;BMP180;28026;48.562;14.440;2024-03-17T02:42:07;94203.00;;;13.70
41593;BMP180;28026;48.562;14.440;2024-03-17T02:44:40;94211.00;;;13.60
41593;BMP180;28026;48.562;14.440;2024-03-17T02:47:11;94203.00;;;13.60
41593;BMP180;28026;48.562;14.440;2024-03-17T02:49:45;94213.00;;;13.60
41593;BMP180;28026;48.562;14.440;2024-03-17T02:52:20;94221.00;;;13.50
41593;BMP180;28026;48.562;14.440;2024-03-17T02:54:51;94221.00;;;13.50
41593;BMP180;28026;48.562;14.440;2024-03-17T02:57:25;94221.00;;;13.50
41593;BMP180;28026;48.562;14.440;2024-03-17T02:59:59;94217.00;;;13.50
41593;BMP180;28026;48.562;14.440;2024-03-17T03:02:30;94211.00;;;13.50
41593;BMP180;28026;48.562;14.440;2024-03-17T03:05:01;94208.00;;;13.50
41593;BMP180;28026;48.562;14.440;2024-03-17T03:07:32;94200.00;;;13.50
41593;BMP180;28026;48.562;14.440;2024-03-17T03:10:03;94198.00;;;13.50
41593;BMP180;28026;48.562;14.440;2024-03-17T03:12:35;94188.00;;;13.50
41593;BMP180;28026;48.562;14.440;2024-03-17T03:15:07;94198.00;;;13.40
41593;BMP180;28026;48.562;14.440;2024-03-17T03:17:38;94186.00;;;13.30
41593;BMP180;28026;48.562;14.440;2024-03-17T03:20:09;94188.00;;;13.30
41593;BMP180;28026;48.562;14.440;2024-03-17T03:22:40;94188.00;;;13.20
41593;BMP180;28026;48.562;14.440;2024-03-17T03:25:11;94186.00;;;13.20
41593;BMP180;28026;48.562;14.440;2024-03-17T03:27:42;94198.00;;;13.10
41593;BMP180;28026;48.562;14.440;2024-03-17T03:30:13;94194.00;;;13.10
41593;BMP180;28026;48.562;14.440;2024-03-17T03:32:45;94199.00;;;13.00
41593;BMP180;28026;48.562;14.440;2024-03-17T03:35:16;94209.00;;;13.00
41593;BMP180;28026;48.562;14.440;2024-03-17T03:37:47;94205.00;;;13.00
41593;BMP180;28026;48.562;14.440;2024-03-17T03:40:18;94202.00;;;12.90
41593;BMP180;28026;48.562;14.440;2024-03-17T03:42:49;94200.00;;;12.90
41593;BMP180;28026;48.562;14.440;2024-03-17T03:45:20;94202.00;;;12.90
41593;BMP180;28026;48.562;14.440;2024-03-17T03:47:51;94208.00;;;12.90
41593;BMP180;28026;48.562;14.440;2024-03-17T03:50:22;94215.00;;;12.80
41593;BMP180;28026;48.562;14.440;2024-03-17T03:52:53;94209.00;;;12.80
41593;BMP180;28026;48.562;14.440;2024-03-17T03:55:24;94211.00;;;12.80
41593;BMP180;28026;48.562;14.440;2024-03-17T03:57:55;94213.00;;;12.80
41593;BMP180;28026;48.562;14.440;2024-03-17T04:00:27;94206.00;;;12.80
41593;BMP180;28026;48.562;14.440;2024-03-17T04:03:01;94203.00;;;12.80
41593;BMP180;28026;48.562;14.440;2024-03-17T04:05:32;94194.00;;;12.80
41593;BMP180;28026;48.562;14.440;2024-03-17T04:08:05;94200.00;;;12.80
41593;BMP180;28026;48.562;14.440;2024-03-17T04:10:36;94203.00;;;12.80
41593;BMP180;28026;48.562;14.440;2024-03-17T04:13:07;94199.00;;;12.90
41593;BMP180;28026;48.562;14.440;2024-03-17T04:15:37;94208.00;;;12.80
41593;BMP180;28026;48.562;14.440;2024-03-17T04:18:09;94205.00;;;12.80
41593;BMP180;28026;48.562;14.440;2024-03-17T04:20:40;94191.00;;;12.80
41593;BMP180;28026;48.562;14.440;2024-03-17T04:23:11;94202.00;;;12.80
41593;BMP180;28026;48.562;14.440;2024-03-17T04:25:42;94209.00;;;12.80
41593;BMP180;28026;48.562;14.440;2024-03-17T04:28:14;94195.00;;;12.80
41593;BMP180;28026;48.562;14.440;2024-03-17T04:30:46;94202.00;;;12.70
41593;BMP180;28026;48.562;14.440;2024-03-17T04:33:16;94209.00;;;12.70
41593;BMP180;28026;48.562;14.440;2024-03-17T04:35:47;94207.00;;;12.70
41593;BMP180;28026;48.562;14.440;2024-03-17T04:38:18;94200.00;;;12.70
41593;BMP180;28026;48.562;14.440;2024-03-17T04:40:50;94201.00;;;12.70
41593;BMP180;28026;48.562;14.440;2024-03-17T04:43:22;94194.00;;;12.80
41593;BMP180;28026;48.562;14.440;2024-03-17T04:46:02;94203.00;;;12.80
41593;BMP180;28026;48.562;14.440;2024-03-17T04:48:35;94212.00;;;12.80
41593;BMP180;28026;48.562;14.440;2024-03-17T04:51:07;94213.00;;;12.90
41593;BMP180;28026;48.562;14.440;2024-03-17T04:53:37;94194.00;;;12.90
41593;BMP180;28026;48.562;14.440;2024-03-17T04:56:08;94208.00;;;12.90
41593;BMP180;28026;48.562;14.440;2024-03-17T04:58:39;94216.00;;;12.90
41593;BMP180;28026;48.562;14.440;2024-03-17T05:01:10;94217.00;;;13.00
41593;BMP180;28026;48.562;14.440;2024-03-17T05:03:41;94216.00;;;13.00
41593;BMP180;28026;48.562;14.440;2024-03-17T05:06:12;94213.00;;;13.00
41593;BMP180;28026;48.562;14.440;2024-03-17T05:08:43;94218.00;;;12.90
41593;BMP180;28026;48.562;14.440;2024-03-17T05:11:14;94219.00;;;12.80
41593;BMP180;28026;48.562;14.440;2024-03-17T05:13:46;94225.00;;;12.70
41593;BMP180;28026;48.562;14.440;2024-03-17T05:16:17;94220.00;;;12.70
41593;BMP180;28026;48.562;14.440;2024-03-17T05:18:49;94226.00;;;12.70
41593;BMP180;28026;48.562;14.440;2024-03-17T05:21:20;94230.00;;;12.80
41593;BMP180;28026;48.562;14.440;2024-03-17T05:23:52;94232.00;;;12.80
41593;BMP180;28026;48.562;14.440;2024-03-17T05:26:24;94230.00;;;12.80
41593;BMP180;28026;48.562;14.440;2024-03-17T05:28:55;94229.00;;;12.90
41593;BMP180;28026;48.562;14.440;2024-03-17T05:31:26;94233.00;;;12.90
41593;BMP180;28026;48.562;14.440;2024-03-17T05:33:58;94222.00;;;12.90
41593;BMP180;28026;48.562;14.440;2024-03-17T05:36:28;94242.00;;;12.90
41593;BMP180;28026;48.562;14.440;2024-03-17T05:39:03;94231.00;;;13.00
41593;BMP180;28026;48.562;14.440;2024-03-17T05:41:34;94247.00;;;13.00
41593;BMP180;28026;48.562;14.440;2024-03-17T05:44:05;94249.00;;;13.10
41593;BMP180;28026;48.562;14.440;2024-03-17T05:46:36;94262.00;;;13.10
41593;BMP180;28026;48.562;14.440;2024-03-17T05:49:07;94254.00;;;13.10
41593;BMP180;28026;48.562;14.440;2024-03-17T05:51:38;94261.00;;;13.10
41593;BMP180;28026;48.562;14.440;2024-03-17T05:54:09;94241.00;;;13.10
41593;BMP180;28026;48.562;14.440;2024-03-17T05:56:40;94251.00;;;13.10
41593;BMP180;28026;48.562;14.440;2024-03-17T05:59:10;94262.00;;;13.10
41593;BMP180;28026;48.562;14.440;2024-03-17T06:01:41;94251.00;;;13.10
41593;BMP180;28026;48.562;14.440;2024-03-17T06:04:12;94260.00;;;13.20
41593;BMP180;28026;48.562;14.440;2024-03-17T06:06:43;94257.00;;;13.20
41593;BMP180;28026;48.562;14.440;2024-03-17T06:09:14;94254.00;;;13.20
41593;BMP180;28026;48.562;14.440;2024-03-17T06:11:48;94253.00;;;13.20
41593;BMP180;28026;48.562;14.440;2024-03-17T06:14:19;94265.00;;;13.20
41593;BMP180;28026;48.562;14.440;2024-03-17T06:16:49;94260.00;;;13.10
41593;BMP180;28026;48.562;14.440;2024-03-17T06:19:20;94262.00;;;13.20
41593;BMP180;28026;48.562;14.440;2024-03-17T06:21:51;94270.00;;;13.20
41593;BMP180;28026;48.562;14.440;2024-03-17T06:24:22;94263.00;;;13.20
41593;BMP180;28026;48.562;14.440;2024-03-17T06:26:55;94260.00;;;13.10
41593;BMP180;28026;48.562;14.440;2024-03-17T06:29:25;94263.00;;;13.10
41593;BMP180;28026;48.562;14.440;2024-03-17T06:31:56;94265.00;;;13.10
41593;BMP180;28026;48.562;14.440;2024-03-17T06:34:27;94272.00;;;13.10
41593;BMP180;28026;48.562;14.440;2024-03-17T06:36:58;94261.00;;;13.20
41593;BMP180;28026;48.562;14.440;2024-03-17T06:39:30;94265.00;;;13.30
41593;BMP180;28026;48.562;14.440;2024-03-17T06:42:01;94265.00;;;13.30
41593;BMP180;28026;48.562;14.440;2024-03-17T06:44:32;94265.00;;;13.40
41593;BMP180;28026;48.562;14.440;2024-03-17T06:47:04;94275.00;;;13.50
41593;BMP180;28026;48.562;14.440;2024-03-17T06:49:35;94274.00;;;13.60
41593;BMP180;28026;48.562;14.440;2024-03-17T06:52:05;94276.00;;;13.60
41593;BMP180;28026;48.562;14.440;2024-03-17T06:54:36;94285.00;;;13.70
41593;BMP180;28026;48.562;14.440;2024-03-17T06:57:08;94275.00;;;13.80
41593;BMP180;28026;48.562;14.440;2024-03-17T06:59:38;94283.00;;;13.80
41593;BMP180;28026;48.562;14.440;2024-03-17T07:02:10;94291.00;;;13.80
41593;BMP180;28026;48.562;14.440;2024-03-17T07:04:44;94287.00;;;13.90
41593;BMP180;28026;48.562;14.440;2024-03-17T07:07:15;94283.00;;;13.90
41593;BMP180;28026;48.562;14.440;2024-03-17T07:09:47;94292.00;;;14.00
41593;BMP180;28026;48.562;14.440;2024-03-17T07:12:18;94292.00;;;14.00
41593;BMP180;28026;48.562;14.440;2024-03-17T07:14:52;94292.00;;;14.00
41593;BMP180;28026;48.562;14.440;2024-03-17T07:17:23;94297.00;;;14.10
41593;BMP180;28026;48.562;14.440;2024-03-17T07:19:54;94292.00;;;14.20
41593;BMP180;28026;48.562;14.440;2024-03-17T07:22:25;94295.00;;;14.20
41593;BMP180;28026;48.562;14.440;2024-03-17T07:24:59;94292.00;;;14.30
41593;BMP180;28026;48.562;14.440;2024-03-17T07:27:33;94289.00;;;14.20
41593;BMP180;28026;48.562;14.440;2024-03-17T07:30:05;94290.00;;;14.20
41593;BMP180;28026;48.562;14.440;2024-03-17T07:32:36;94286.00;;;14.20
41593;BMP180;28026;48.562;14.440;2024-03-17T07:35:07;94290.00;;;14.30
41593;BMP180;28026;48.562;14.440;2024-03-17T07:37:39;94296.00;;;14.40
41593;BMP180;28026;48.562;14.440;2024-03-17T07:40:10;94286.00;;;14.40
41593;BMP180;28026;48.562;14.440;2024-03-17T07:42:41;94286.00;;;14.50
41593;BMP180;28026;48.562;14.440;2024-03-17T07:45:12;94292.00;;;14.50
41593;BMP180;28026;48.562;14.440;2024-03-17T07:47:44;94287.00;;;14.60
41593;BMP180;28026;48.562;14.440;2024-03-17T07:50:14;94287.00;;;14.70
41593;BMP180;28026;48.562;14.440;2024-03-17T07:52:45;94285.00;;;14.70
41593;BMP180;28026;48.562;14.440;2024-03-17T07:55:17;94284.00;;;14.70
41593;BMP180;28026;48.562;14.440;2024-03-17T07:57:48;94287.00;;;14.60
41593;BMP180;28026;48.562;14.440;2024-03-17T08:00:19;94282.00;;;14.80
41593;BMP180;28026;48.562;14.440;2024-03-17T08:02:50;94286.00;;;15.10
41593;BMP180;28026;48.562;14.440;2024-03-17T08:05:21;94287.00;;;15.30
41593;BMP180;28026;48.562;14.440;2024-03-17T08:07:52;94288.00;;;15.30
41593;BMP180;28026;48.562;14.440;2024-03-17T08:10:23;94283.00;;;15.40
41593;BMP180;28026;48.562;14.440;2024-03-17T08:12:54;94288.00;;;15.50
41593;BMP180;28026;48.562;14.440;2024-03-17T08:15:26;94303.00;;;15.50
41593;BMP180;28026;48.562;14.440;2024-03-17T08:17:57;94301.00;;;15.50
41593;BMP180;28026;48.562;14.440;2024-03-17T08:20:27;94300.00;;;15.40
41593;BMP180;28026;48.562;14.440;2024-03-17T08:22:58;94300.00;;;15.40
41593;BMP180;28026;48.562;14.440;2024-03-17T08:25:29;94297.00;;;15.50
41593;BMP180;28026;48.562;14.440;2024-03-17T08:28:01;94297.00;;;15.70
41593;BMP180;28026;48.562;14.440;2024-03-17T08:30:33;94285.00;;;15.90
41593;BMP180;28026;48.562;14.440;2024-03-17T08:33:04;94274.00;;;16.00
41593;BMP180;28026;48.562;14.440;2024-03-17T08:35:36;94280.00;;;16.20
41593;BMP180;28026;48.562;14.440;2024-03-17T08:38:07;94280.00;;;16.40
41593;BMP180;28026;48.562;14.440;2024-03-17T08:40:38;94264.00;;;16.50
41593;BMP180;28026;48.562;14.440;2024-03-17T08:43:09;94271.00;;;16.80
41593;BMP180;28026;48.562;14.440;2024-03-17T08:45:40;94273.00;;;17.00
41593;BMP180;28026;48.562;14.440;2024-03-17T08:48:11;94273.00;;;17.30
41593;BMP180;28026;48.562;14.440;2024-03-17T08:50:50;94275.00;;;17.50
41593;BMP180;28026;48.562;14.440;2024-03-17T08:53:22;94276.00;;;17.70
41593;BMP180;28026;48.562;14.440;2024-03-17T08:55:54;94269.00;;;17.70
41593;BMP180;28026;48.562;14.440;2024-03-17T08:58:26;94275.00;;;17.80
41593;BMP180;28026;48.562;14.440;2024-03-17T09:00:57;94263.00;;;17.90
41593;BMP180;28026;48.562;14.440;2024-03-17T09:03:28;94258.00;;;18.00
41593;BMP180;28026;48.562;14.440;2024-03-17T09:05:59;94262.00;;;18.40
41593;BMP180;28026;48.562;14.440;2024-03-17T09:08:30;94259.00;;;18.60
41593;BMP180;28026;48.562;14.440;2024-03-17T09:11:06;94260.00;;;18.70
41593;BMP180;28026;48.562;14.440;2024-03-17T09:13:42;94261.00;;;18.90
41593;BMP180;28026;48.562;14.440;2024-03-17T09:16:13;94249.00;;;18.90
41593;BMP180;28026;48.562;14.440;2024-03-17T09:18:44;94258.00;;;18.70
41593;BMP180;28026;48.562;14.440;2024-03-17T09:21:15;94255.00;;;18.60
41593;BMP180;28026;48.562;14.440;2024-03-17T09:23:49;94253.00;;;18.40
41593;BMP180;28026;48.562;14.440;2024-03-17T09:26:20;94255.00;;;18.10
41593;BMP180;28026;48.562;14.440;2024-03-17T09:28:51;94250.00;;;18.00
41593;BMP180;28026;48.562;14.440;2024-03-17T09:31:22;94243.00;;;17.90
41593;BMP180;28026;48.562;14.440;2024-03-17T09:33:53;94240.00;;;17.90
41593;BMP180;28026;48.562;14.440;2024-03-17T09:36:23;94243.00;;;17.90
41593;BMP180;28026;48.562;14.440;2024-03-17T09:38:54;94245.00;;;18.00
41593;BMP180;28026;48.562;14.440;2024-03-17T09:41:25;94241.00;;;18.00
41593;BMP180;28026;48.562;14.440;2024-03-17T09:43:57;94234.00;;;18.10
41593;BMP180;28026;48.562;14.440;2024-03-17T09:46:29;94230.00;;;18.40
41593;BMP180;28026;48.562;14.440;2024-03-17T09:49:00;94229.00;;;18.40
41593;BMP180;28026;48.562;14.440;2024-03-17T09:51:31;94233.00;;;18.60
41593;BMP180;28026;48.562;14.440;2024-03-17T09:54:07;94232.00;;;18.60
41593;BMP180;28026;48.562;14.440;2024-03-17T09:56:49;94222.00;;;18.60
41593;BMP180;28026;48.562;14.440;2024-03-17T09:59:21;94224.00;;;18.70
41593;BMP180;28026;48.562;14.440;2024-03-17T10:01:52;94225.00;;;18.80
41593;BMP180;28026;48.562;14.440;2024-03-17T10:04:33;94216.00;;;19.00
41593;BMP180;28026;48.562;14.440;2024-03-17T10:07:04;94228.00;;;19.10
41593;BMP180;28026;48.562;14.440;2024-03-17T10:09:35;94215.00;;;18.90
41593;BMP180;28026;48.562;14.440;2024-03-17T10:12:27;94217.00;;;18.60
41593;BMP180;28026;48.562;14.440;2024-03-17T10:15:00;94218.00;;;18.40
41593;BMP180;28026;48.562;14.440;2024-03-17T10:17:32;94212.00;;;18.40
41593;BMP180;28026;48.562;14.440;2024-03-17T10:20:16;94223.00;;;18.50
41593;BMP180;28026;48.562;14.440;2024-03-17T10:23:04;94215.00;;;18.70
41593;BMP180;28026;48.562;14.440;2024-03-17T10:25:39;94214.00;;;18.60
41593;BMP180;28026;48.562;14.440;2024-03-17T10:28:11;94214.00;;;18.30
41593;BMP180;28026;48.562;14.440;2024-03-17T10:31:00;94208.00;;;18.10
41593;BMP180;28026;48.562;14.440;2024-03-17T10:33:31;94194.00;;;18.10
41593;BMP180;28026;48.562;14.440;2024-03-17T10:36:02;94207.00;;;18.30
41593;BMP180;28026;48.562;14.440;2024-03-17T10:38:35;94211.00;;;18.40
41593;BMP180;28026;48.562;14.440;2024-03-17T10:41:09;94206.00;;;18.60
41593;BMP180;28026;48.562;14.440;2024-03-17T10:43:42;94211.00;;;18.70
41593;BMP180;28026;48.562;14.440;2024-03-17T10:46:14;94213.00;;;18.70
41593;BMP180;28026;48.562;14.440;2024-03-17T10:48:47;94204.00;;;18.60
41593;BMP180;28026;48.562;14.440;2024-03-17T10:51:19;94211.00;;;18.50
41593;BMP180;28026;48.562;14.440;2024-03-17T10:53:52;94209.00;;;18.50
41593;BMP180;28026;48.562;14.440;2024-03-17T10:56:25;94214.00;;;18.50
41593;BMP180;28026;48.562;14.440;2024-03-17T10:58:58;94208.00;;;18.60
41593;BMP180;28026;48.562;14.440;2024-03-17T11:01:33;94203.00;;;18.50
41593;BMP180;28026;48.562;14.440;2024-03-17T11:04:04;94207.00;;;18.40
41593;BMP180;28026;48.562;14.440;2024-03-17T11:06:35;94203.00;;;18.50
41593;BMP180;28026;48.562;14.440;2024-03-17T11:09:12;94194.00;;;18.80
41593;BMP180;28026;48.562;14.440;2024-03-17T11:11:46;94200.00;;;19.00
41593;BMP180;28026;48.562;14.440;2024-03-17T11:14:20;94194.00;;;19.10
41593;BMP180;28026;48.562;14.440;2024-03-17T11:16:51;94181.00;;;19.20
41593;BMP180;28026;48.562;14.440;2024-03-17T11:19:21;94191.00;;;19.30
41593;BMP180;28026;48.562;14.440;2024-03-17T11:21:53;94183.00;;;19.30
41593;BMP180;28026;48.562;14.440;2024-03-17T11:24:27;94184.00;;;19.30
41593;BMP180;28026;48.562;14.440;2024-03-17T11:26:58;94182.00;;;19.20
41593;BMP180;28026;48.562;14.440;2024-03-17T11:29:29;94186.00;;;19.30
41593;BMP180;28026;48.562;14.440;2024-03-17T11:32:26;94184.00;;;19.20
41593;BMP180;28026;48.562;14.440;2024-03-17T11:35:14;94184.00;;;18.80
41593;BMP180;28026;48.562;14.440;2024-03-17T11:37:45;94172.00;;;18.60
41593;BMP180;28026;48.562;14.440;2024-03-17T11:40:25;94181.00;;;18.40
41593;BMP180;28026;48.562;14.440;2024-03-17T11:43:03;94184.00;;;18.50
41593;BMP180;28026;48.562;14.440;2024-03-17T11:45:36;94170.00;;;18.60
41593;BMP180;28026;48.562;14.440;2024-03-17T11:48:12;94163.00;;;18.40
41593;BMP180;28026;48.562;14.440;2024-03-17T11:50:44;94163.00;;;18.20
41593;BMP180;28026;48.562;14.440;2024-03-17T11:53:16;94156.00;;;18.10
41593;BMP180;28026;48.562;14.440;2024-03-17T11:55:48;94162.00;;;18.00
41593;BMP180;28026;48.562;14.440;2024-03-17T11:58:20;94158.00;;;17.90
41593;BMP180;28026;48.562;14.440;2024-03-17T12:00:52;94162.00;;;18.00
41593;BMP180;28026;48.562;14.440;2024-03-17T12:03:23;94155.00;;;18.20
41593;BMP180;28026;48.562;14.440;2024-03-17T12:05:54;94150.00;;;18.20
41593;BMP180;28026;48.562;14.440;2024-03-17T12:08:25;94150.00;;;18.20
41593;BMP180;28026;48.562;14.440;2024-03-17T12:10:56;94142.00;;;18.20
41593;BMP180;28026;48.562;14.440;2024-03-17T12:13:33;94140.00;;;18.00
41593;BMP180;28026;48.562;14.440;2024-03-17T12:16:13;94121.00;;;17.90
41593;BMP180;28026;48.562;14.440;2024-03-17T12:18:44;94120.00;;;17.80
41593;BMP180;28026;48.562;14.440;2024-03-17T12:21:16;94129.00;;;17.80
41593;BMP180;28026;48.562;14.440;2024-03-17T12:23:47;94120.00;;;17.80
41593;BMP180;28026;48.562;14.440;2024-03-17T12:26:18;94108.00;;;17.70
41593;BMP180;28026;48.562;14.440;2024-03-17T12:28:49;94111.00;;;17.70
41593;BMP180;28026;48.562;14.440;2024-03-17T12:31:20;94101.00;;;17.70
41593;BMP180;28026;48.562;14.440;2024-03-17T12:33:51;94098.00;;;17.80
41593;BMP180;28026;48.562;14.440;2024-03-17T12:36:23;94106.00;;;17.90
41593;BMP180;28026;48.562;14.440;2024-03-17T12:38:54;94096.00;;;18.00
41593;BMP180;28026;48.562;14.440;2024-03-17T12:41:41;94097.00;;;18.10
41593;BMP180;28026;48.562;14.440;2024-03-17T12:44:22;94097.00;;;18.20
41593;BMP180;28026;48.562;14.440;2024-03-17T12:46:57;94087.00;;;18.60
41593;BMP180;28026;48.562;14.440;2024-03-17T12:49:34;94096.00;;;18.80
41593;BMP180;28026;48.562;14.440;2024-03-17T12:52:19;94085.00;;;18.90
41593;BMP180;28026;48.562;14.440;2024-03-17T12:55:06;94080.00;;;19.10
41593;BMP180;28026;48.562;14.440;2024-03-17T13:01:02;94081.00;;;19.50
41593;BMP180;28026;48.562;14.440;2024-03-17T13:03:37;94075.00;;;19.80
41593;BMP180;28026;48.562;14.440;2024-03-17T13:06:22;94082.00;;;20.00
41593;BMP180;28026;48.562;14.440;2024-03-17T13:08:56;94064.00;;;20.10
41593;BMP180;28026;48.562;14.440;2024-03-17T13:11:27;94061.00;;;20.10
41593;BMP180;28026;48.562;14.440;2024-03-17T13:13:59;94061.00;;;20.20
41593;BMP180;28026;48.562;14.440;2024-03-17T13:16:30;94057.00;;;20.30
41593;BMP180;28026;48.562;14.440;2024-03-17T13:19:02;94062.00;;;20.40
41593;BMP180;28026;48.562;14.440;2024-03-17T13:21:32;94054.00;;;20.40
41593;BMP180;28026;48.562;14.440;2024-03-17T13:24:03;94053.00;;;20.30
41593;BMP180;28026;48.562;14.440;2024-03-17T13:26:35;94056.00;;;20.00
41593;BMP180;28026;48.562;14.440;2024-03-17T13:29:06;94053.00;;;19.80
41593;BMP180;28026;48.562;14.440;2024-03-17T13:31:37;94040.00;;;19.40
41593;BMP180;28026;48.562;14.440;2024-03-17T13:34:08;94045.00;;;19.50
41593;BMP180;28026;48.562;14.440;2024-03-17T13:36:39;94042.00;;;19.70
41593;BMP180;28026;48.562;14.440;2024-03-17T13:39:10;94053.00;;;19.60
41593;BMP180;28026;48.562;14.440;2024-03-17T13:41:40;94043.00;;;19.50
41593;BMP180;28026;48.562;14.440;2024-03-17T13:44:11;94043.00;;;19.70
41593;BMP180;28026;48.562;14.440;2024-03-17T13:46:42;94042.00;;;19.60
41593;BMP180;28026;48.562;14.440;2024-03-17T13:49:13;94033.00;;;19.40
41593;BMP180;28026;48.562;14.440;2024-03-17T13:51:44;94036.00;;;19.40
41593;BMP180;28026;48.562;14.440;2024-03-17T13:54:15;94046.00;;;19.40
41593;BMP180;28026;48.562;14.440;2024-03-17T13:56:49;94032.00;;;19.30
41593;BMP180;28026;48.562;14.440;2024-03-17T13:59:20;94040.00;;;19.00
41593;BMP180;28026;48.562;14.440;2024-03-17T14:01:52;94043.00;;;18.90
41593;BMP180;28026;48.562;14.440;2024-03-17T14:04:23;94043.00;;;18.90
41593;BMP180;28026;48.562;14.440;2024-03-17T14:06:54;94034.00;;;18.80
41593;BMP180;28026;48.562;14.440;2024-03-17T14:09:25;94034.00;;;18.80
41593;BMP180;28026;48.562;14.440;2024-03-17T14:12:01;94021.00;;;18.80
41593;BMP180;28026;48.562;14.440;2024-03-17T14:14:32;94026.00;;;18.80
41593;BMP180;28026;48.562;14.440;2024-03-17T14:17:03;94024.00;;;18.90
41593;BMP180;28026;48.562;14.440;2024-03-17T14:19:34;94021.00;;;18.90
41593;BMP180;28026;48.562;14.440;2024-03-17T14:22:05;94021.00;;;18.90
41593;BMP180;28026;48.562;14.440;2024-03-17T14:24:36;94022.00;;;18.90
41593;BMP180;28026;48.562;14.440;2024-03-17T14:27:07;94005.00;;;19.00